createdAt,value
2023-03-02T00:01:52.555Z,6.70
2023-03-02T00:04:22.255Z,7.17
2023-03-02T00:06:51.789Z,7.40
2023-03-02T00:09:20.301Z,9.90
2023-03-02T00:11:48.677Z,8.63
2023-03-02T00:14:16.902Z,8.47
2023-03-02T00:16:45.137Z,9.80
2023-03-02T00:19:14.767Z,7.80
2023-03-02T00:21:43.021Z,8.63
2023-03-02T00:24:11.507Z,9.90
2023-03-02T00:26:39.802Z,9.53
2023-03-02T00:29:08.019Z,7.80
2023-03-02T00:31:37.931Z,8.23
2023-03-02T00:34:06.565Z,9.00
2023-03-02T00:36:36.359Z,9.10
2023-03-02T00:39:05.744Z,10.07
2023-03-02T00:41:33.972Z,10.23
2023-03-02T00:44:02.303Z,8.43
2023-03-02T00:46:30.930Z,8.97
2023-03-02T00:48:59.435Z,8.87
2023-03-02T00:51:27.950Z,6.50
2023-03-02T00:53:57.545Z,7.93
2023-03-02T00:56:25.782Z,7.60
2023-03-02T00:58:54.022Z,6.93
2023-03-02T01:01:23.260Z,8.40
2023-03-02T01:03:51.467Z,8.07
2023-03-02T01:06:20.803Z,8.90
2023-03-02T01:08:49.663Z,9.00
2023-03-02T01:11:20.592Z,8.90
2023-03-02T01:13:49.244Z,9.90
2023-03-02T01:16:18.092Z,8.67
2023-03-02T01:18:46.463Z,8.03
2023-03-02T01:21:16.612Z,9.67
2023-03-02T01:23:45.825Z,10.43
2023-03-02T01:26:14.019Z,10.43
2023-03-02T01:28:43.637Z,7.37
2023-03-02T01:31:11.919Z,9.20
2023-03-02T01:33:40.151Z,7.33
2023-03-02T01:36:09.265Z,8.37
2023-03-02T01:38:37.561Z,7.70
2023-03-02T01:41:06.204Z,7.10
2023-03-02T01:43:34.634Z,8.00
2023-03-02T01:46:07.312Z,10.63
2023-03-02T01:48:36.936Z,10.57
2023-03-02T01:51:06.793Z,10.50
2023-03-02T01:53:36.084Z,8.70
2023-03-02T01:56:05.750Z,9.80
2023-03-02T01:58:34.946Z,10.60
2023-03-02T02:01:05.100Z,7.87
2023-03-02T02:03:33.549Z,9.00
2023-03-02T02:06:05.786Z,10.40
2023-03-02T02:08:34.073Z,9.60
2023-03-02T02:11:02.446Z,9.30
2023-03-02T02:13:30.733Z,9.33
2023-03-02T02:15:59.003Z,9.23
2023-03-02T02:18:28.716Z,8.30
2023-03-02T02:20:57.254Z,9.33
2023-03-02T02:23:27.477Z,10.27
2023-03-02T02:26:09.676Z,9.63
2023-03-02T02:28:40.967Z,8.97
2023-03-02T02:31:10.869Z,7.23
2023-03-02T02:33:39.824Z,8.00
2023-03-02T02:36:09.707Z,7.63
2023-03-02T02:38:38.278Z,8.43
2023-03-02T02:41:10.305Z,9.90
2023-03-02T02:43:38.797Z,8.93
2023-03-02T02:46:07.114Z,9.87
2023-03-02T02:48:36.334Z,9.00
2023-03-02T02:51:04.679Z,10.50
2023-03-02T02:53:37.054Z,8.77
2023-03-02T02:56:06.327Z,8.90
2023-03-02T02:58:38.841Z,9.80
2023-03-02T03:01:09.962Z,6.80
2023-03-02T03:03:39.307Z,8.30
2023-03-02T03:06:08.926Z,6.50
2023-03-02T03:08:58.021Z,8.50
2023-03-02T03:11:27.427Z,6.70
2023-03-02T03:14:02.333Z,8.80
2023-03-02T03:16:32.007Z,9.87
2023-03-02T03:19:02.059Z,7.87
2023-03-02T03:21:30.370Z,8.87
2023-03-02T03:23:58.704Z,10.60
2023-03-02T03:26:26.899Z,6.77
2023-03-02T03:28:57.331Z,7.40
2023-03-02T03:31:28.497Z,6.77
2023-03-02T03:33:56.985Z,10.33
2023-03-02T03:36:25.277Z,7.63
2023-03-02T03:38:53.475Z,6.73
2023-03-02T03:41:21.859Z,7.40
2023-03-02T03:43:50.385Z,8.20
2023-03-02T03:46:19.267Z,6.70
2023-03-02T03:48:49.078Z,6.70
2023-03-02T03:51:17.639Z,6.80
2023-03-02T03:53:47.039Z,9.10
2023-03-02T03:56:15.305Z,10.60
2023-03-02T03:58:43.622Z,7.60
2023-03-02T04:01:11.927Z,8.70
2023-03-02T04:03:40.442Z,9.50
2023-03-02T04:06:18.779Z,8.57
2023-03-02T04:08:46.968Z,9.83
2023-03-02T04:11:15.226Z,9.20
2023-03-02T04:13:43.853Z,9.23
2023-03-02T04:16:12.090Z,7.87
2023-03-02T04:18:40.418Z,8.90
2023-03-02T04:21:10.011Z,10.03
2023-03-02T04:23:38.312Z,9.00
2023-03-02T04:26:08.101Z,8.47
2023-03-02T04:28:36.332Z,7.93
2023-03-02T04:31:04.667Z,8.40
2023-03-02T04:33:32.969Z,8.43
2023-03-02T04:36:01.263Z,8.90
2023-03-02T04:38:31.083Z,8.20
2023-03-02T04:40:59.433Z,8.20
2023-03-02T04:43:28.166Z,9.27
2023-03-02T04:45:56.400Z,10.60
2023-03-02T04:48:24.742Z,8.50
2023-03-02T04:50:53.192Z,8.17
2023-03-02T04:53:21.422Z,10.13
2023-03-02T04:55:51.315Z,8.70
2023-03-02T04:58:19.566Z,9.53
2023-03-02T05:00:47.897Z,9.53
2023-03-02T05:03:16.199Z,9.57
2023-03-02T05:05:44.470Z,8.80
2023-03-02T05:08:14.761Z,9.77
2023-03-02T05:10:43.066Z,8.43
2023-03-02T05:13:12.895Z,9.47
2023-03-02T05:15:43.506Z,8.97
2023-03-02T05:18:13.310Z,9.00
2023-03-02T05:20:41.712Z,6.07
2023-03-02T05:23:10.776Z,9.40
2023-03-02T05:25:40.438Z,6.90
2023-03-02T05:28:08.758Z,7.23
2023-03-02T05:30:38.414Z,8.20
2023-03-02T05:33:06.965Z,8.10
2023-03-02T05:35:35.269Z,7.23
2023-03-02T05:38:03.628Z,8.60
2023-03-02T05:40:31.831Z,8.90
2023-03-02T05:43:00.384Z,10.30
2023-03-02T05:45:30.132Z,7.90
2023-03-02T05:47:59.833Z,8.90
2023-03-02T05:50:28.314Z,8.13
2023-03-02T05:52:56.578Z,6.40
2023-03-02T05:55:24.801Z,6.97
2023-03-02T05:57:53.181Z,6.80
2023-03-02T06:00:22.473Z,11.17
2023-03-02T06:02:51.009Z,9.40
2023-03-02T06:05:22.638Z,9.30
2023-03-02T06:07:50.907Z,7.73
2023-03-02T06:10:19.444Z,7.47
2023-03-02T06:12:48.920Z,9.80
2023-03-02T06:15:17.173Z,11.47
2023-03-02T06:17:45.539Z,8.70
2023-03-02T06:20:14.504Z,8.90
2023-03-02T06:22:45.988Z,8.00
2023-03-02T06:25:14.908Z,8.77
2023-03-02T06:27:43.245Z,8.43
2023-03-02T06:30:45.780Z,10.93
2023-03-02T06:33:14.170Z,10.97
2023-03-02T06:35:45.482Z,8.13
2023-03-02T06:38:20.977Z,10.47
2023-03-02T06:40:49.351Z,9.03
2023-03-02T06:43:17.840Z,8.30
2023-03-02T06:45:46.273Z,8.00
2023-03-02T06:48:14.841Z,8.97
2023-03-02T06:50:43.070Z,9.80
2023-03-02T06:53:11.405Z,9.23
2023-03-02T06:55:40.998Z,8.67
2023-03-02T06:58:13.122Z,10.90
2023-03-02T07:00:41.783Z,10.00
2023-03-02T07:03:10.109Z,9.90
2023-03-02T07:05:46.395Z,7.40
2023-03-02T07:08:14.784Z,10.10
2023-03-02T07:10:44.424Z,10.60
2023-03-02T07:13:12.783Z,8.53
2023-03-02T07:15:41.391Z,11.63
2023-03-02T07:18:09.780Z,9.77
2023-03-02T07:20:38.470Z,9.07
2023-03-02T07:23:06.809Z,9.00
2023-03-02T07:25:36.943Z,9.10
2023-03-02T07:28:06.848Z,9.40
2023-03-02T07:30:35.210Z,9.93
2023-03-02T07:33:03.705Z,10.70
2023-03-02T07:35:32.001Z,10.57
2023-03-02T07:38:00.297Z,8.77
2023-03-02T07:40:28.567Z,9.60
2023-03-02T07:42:56.789Z,7.57
2023-03-02T07:45:26.669Z,8.93
2023-03-02T07:47:54.956Z,9.80
2023-03-02T07:50:23.247Z,7.93
2023-03-02T07:52:51.565Z,6.80
2023-03-02T07:55:19.835Z,9.53
2023-03-02T07:57:48.075Z,7.60
2023-03-02T08:00:16.944Z,6.80
2023-03-02T08:02:46.778Z,8.30
2023-03-02T08:05:15.741Z,10.03
2023-03-02T08:07:44.071Z,8.97
2023-03-02T08:10:13.237Z,7.23
2023-03-02T08:12:42.841Z,9.30
2023-03-02T08:15:12.370Z,8.70
2023-03-02T08:17:40.564Z,8.57
2023-03-02T08:20:11.054Z,8.80
2023-03-02T08:22:39.429Z,9.97
2023-03-02T08:25:08.689Z,6.33
2023-03-02T08:27:37.032Z,8.90
2023-03-02T08:30:06.707Z,8.60
2023-03-02T08:32:35.001Z,9.37
2023-03-02T08:35:03.482Z,7.20
2023-03-02T08:37:33.565Z,9.80
2023-03-02T08:40:01.807Z,9.87
2023-03-02T08:42:30.079Z,9.30
2023-03-02T08:44:58.491Z,8.60
2023-03-02T08:47:26.753Z,9.47
2023-03-02T08:49:56.193Z,9.13
2023-03-02T08:52:24.442Z,8.10
2023-03-02T08:54:55.024Z,9.83
2023-03-02T08:57:23.282Z,9.87
2023-03-02T08:59:52.334Z,6.90
2023-03-02T09:02:20.550Z,10.73
2023-03-02T09:04:49.003Z,10.27
2023-03-02T09:07:17.472Z,8.60
2023-03-02T09:09:47.822Z,9.43
2023-03-02T09:12:17.399Z,11.37
2023-03-02T09:14:45.621Z,10.17
2023-03-02T09:17:15.547Z,9.10
2023-03-02T09:19:44.640Z,10.20
2023-03-02T09:22:13.111Z,8.80
2023-03-02T09:24:41.398Z,9.20
2023-03-02T09:27:09.770Z,10.73
2023-03-02T09:29:39.428Z,9.60
2023-03-02T09:32:08.025Z,5.17
2023-03-02T09:34:36.559Z,6.43
2023-03-02T09:37:07.256Z,8.63
2023-03-02T09:39:35.729Z,7.37
2023-03-02T09:42:22.876Z,2.80
2023-03-02T09:45:10.238Z,10.10
2023-03-02T09:47:45.705Z,10.40
2023-03-02T09:50:23.376Z,7.17
2023-03-02T09:52:54.691Z,11.30
2023-03-02T09:55:25.321Z,10.13
2023-03-02T09:57:54.933Z,9.20
2023-03-02T10:00:29.026Z,8.97
2023-03-02T10:03:11.442Z,5.67
2023-03-02T10:05:45.889Z,8.53
2023-03-02T10:08:15.000Z,9.40
2023-03-02T10:10:46.394Z,9.77
2023-03-02T10:13:21.950Z,4.87
2023-03-02T10:15:54.974Z,10.33
2023-03-02T10:18:26.478Z,8.77
2023-03-02T10:20:57.319Z,5.70
2023-03-02T10:23:30.191Z,9.80
2023-03-02T10:26:02.204Z,6.23
2023-03-02T10:28:32.758Z,10.70
2023-03-02T10:31:05.581Z,7.60
2023-03-02T10:33:36.280Z,10.00
2023-03-02T10:36:04.947Z,8.17
2023-03-02T10:38:34.212Z,7.37
2023-03-02T10:41:07.013Z,8.37
2023-03-02T10:43:37.397Z,8.33
2023-03-02T10:46:07.488Z,7.30
2023-03-02T10:48:49.338Z,8.00
2023-03-02T10:51:25.824Z,5.30
2023-03-02T10:54:04.438Z,8.87
2023-03-02T10:56:32.965Z,9.10
2023-03-02T10:59:03.994Z,6.67
2023-03-02T11:01:33.069Z,8.23
2023-03-02T11:04:04.715Z,7.07
2023-03-02T11:06:33.575Z,8.60
2023-03-02T11:09:03.009Z,8.97
2023-03-02T11:11:31.596Z,11.20
2023-03-02T11:14:09.497Z,8.90
2023-03-02T11:16:37.844Z,8.50
2023-03-02T11:19:09.535Z,7.80
2023-03-02T11:21:39.615Z,11.00
2023-03-02T11:24:10.593Z,11.13
2023-03-02T11:26:51.065Z,10.07
2023-03-02T11:29:27.260Z,9.27
2023-03-02T11:31:58.330Z,8.50
2023-03-02T11:34:30.734Z,4.37
2023-03-02T11:37:16.810Z,10.43
2023-03-02T11:40:03.990Z,8.37
2023-03-02T11:42:33.944Z,5.07
2023-03-02T11:45:03.692Z,9.47
2023-03-02T11:47:33.808Z,7.17
2023-03-02T11:50:06.121Z,9.10
2023-03-02T11:52:36.238Z,4.97
2023-03-02T11:55:06.340Z,11.63
2023-03-02T11:57:38.647Z,8.73
2023-03-02T12:00:14.090Z,7.70
2023-03-02T12:02:42.363Z,3.03
2023-03-02T12:05:25.525Z,11.70
2023-03-02T12:08:04.026Z,10.97
2023-03-02T12:10:34.621Z,11.50
2023-03-02T12:13:14.555Z,6.87
2023-03-02T12:15:43.945Z,10.50
2023-03-02T12:18:33.403Z,5.70
2023-03-02T12:21:08.108Z,8.87
2023-03-02T12:23:37.634Z,9.20
2023-03-02T12:26:08.384Z,10.50
2023-03-02T12:28:37.570Z,6.73
2023-03-02T12:31:13.217Z,11.00
2023-03-02T12:33:46.273Z,12.07
2023-03-02T12:36:17.756Z,9.33
2023-03-02T12:38:51.398Z,8.90
2023-03-02T12:41:25.135Z,8.40
2023-03-02T12:44:00.332Z,10.07
2023-03-02T12:46:30.502Z,7.33
2023-03-02T12:49:01.205Z,9.53
2023-03-02T12:51:32.535Z,9.83
2023-03-02T12:54:05.102Z,4.67
2023-03-02T12:56:33.699Z,11.30
2023-03-02T12:59:02.593Z,10.23
2023-03-02T13:01:31.785Z,8.13
2023-03-02T13:04:00.459Z,7.80
2023-03-02T13:06:31.599Z,8.40
2023-03-02T13:09:01.385Z,11.20
2023-03-02T13:11:33.897Z,12.20
2023-03-02T13:14:04.020Z,5.90
2023-03-02T13:16:33.915Z,9.20
2023-03-02T13:19:03.799Z,8.13
2023-03-02T13:21:33.571Z,3.20
2023-03-02T13:24:03.863Z,5.37
2023-03-02T13:26:34.024Z,4.50
2023-03-02T13:29:03.717Z,11.03
2023-03-02T13:31:32.812Z,9.00
2023-03-02T13:34:01.412Z,11.77
2023-03-02T13:36:31.680Z,11.30
2023-03-02T13:39:01.077Z,8.10
2023-03-02T13:41:31.568Z,11.13
2023-03-02T13:44:00.581Z,12.03
2023-03-02T13:46:31.160Z,12.30
2023-03-02T13:49:10.779Z,5.50
2023-03-02T13:51:40.767Z,13.20
2023-03-02T13:54:14.782Z,9.10
2023-03-02T13:56:45.421Z,12.27
2023-03-02T13:59:14.569Z,6.77
2023-03-02T14:01:44.058Z,8.57
2023-03-02T14:04:14.018Z,11.37
2023-03-02T14:06:42.486Z,10.23
2023-03-02T14:09:10.770Z,10.30
2023-03-02T14:11:40.604Z,12.20
2023-03-02T14:14:14.046Z,9.90
2023-03-02T14:16:42.545Z,11.67
2023-03-02T14:19:11.369Z,9.83
2023-03-02T14:21:39.700Z,10.50
2023-03-02T14:24:08.523Z,10.70
2023-03-02T14:26:38.423Z,11.80
2023-03-02T14:29:16.760Z,10.10
2023-03-02T14:31:45.088Z,10.00
2023-03-02T14:34:14.158Z,10.70
2023-03-02T14:36:43.366Z,6.97
2023-03-02T14:39:20.086Z,5.77
2023-03-02T14:41:53.731Z,5.37
2023-03-02T14:44:24.490Z,9.73
2023-03-02T14:46:53.002Z,9.57
2023-03-02T14:49:21.893Z,6.37
2023-03-02T14:51:55.635Z,10.23
2023-03-02T14:54:26.325Z,4.60
2023-03-02T14:56:54.887Z,6.27
2023-03-02T14:59:24.785Z,5.77
2023-03-02T15:01:53.209Z,5.20
2023-03-02T15:04:22.123Z,9.70
2023-03-02T15:06:50.477Z,4.17
2023-03-02T15:09:18.729Z,9.63
2023-03-02T15:11:47.094Z,8.13
2023-03-02T15:14:15.332Z,6.30
2023-03-02T15:16:44.988Z,8.40
2023-03-02T15:19:13.265Z,8.30
2023-03-02T15:21:44.960Z,8.70
2023-03-02T15:24:13.429Z,8.13
2023-03-02T15:26:42.376Z,8.23
2023-03-02T15:29:10.760Z,4.57
2023-03-02T15:31:39.587Z,9.50
2023-03-02T15:34:09.411Z,8.73
2023-03-02T15:36:40.024Z,8.17
2023-03-02T15:39:08.948Z,10.03
2023-03-02T15:41:37.254Z,8.47
2023-03-02T15:44:05.641Z,5.80
2023-03-02T15:46:33.953Z,4.60
2023-03-02T15:49:02.302Z,6.67
2023-03-02T15:51:32.205Z,7.33
2023-03-02T15:54:00.768Z,7.00
2023-03-02T15:56:38.747Z,4.63
2023-03-02T15:59:12.080Z,5.70
2023-03-02T16:01:40.359Z,4.17
2023-03-02T16:04:08.598Z,4.23
2023-03-02T16:06:38.400Z,4.93
2023-03-02T16:09:06.934Z,7.60
2023-03-02T16:11:35.222Z,6.60
2023-03-02T16:14:03.470Z,4.67
2023-03-02T16:16:31.985Z,7.93
2023-03-02T16:19:02.006Z,3.73
2023-03-02T16:21:30.500Z,6.60
2023-03-02T16:24:03.986Z,7.00
2023-03-02T16:26:33.168Z,7.60
2023-03-02T16:29:01.618Z,6.60
2023-03-02T16:31:32.999Z,4.77
2023-03-02T16:34:06.907Z,6.73
2023-03-02T16:36:35.225Z,3.60
2023-03-02T16:39:05.710Z,8.37
2023-03-02T16:41:34.126Z,1.60
2023-03-02T16:44:16.119Z,7.50
2023-03-02T16:46:44.517Z,4.27
2023-03-02T16:49:13.176Z,3.87
2023-03-02T16:51:42.081Z,5.43
2023-03-02T16:54:11.810Z,8.17
2023-03-02T16:56:41.793Z,4.27
2023-03-02T16:59:10.031Z,5.37
2023-03-02T17:01:38.309Z,7.30
2023-03-02T17:04:06.644Z,8.00
2023-03-02T17:06:35.040Z,6.07
2023-03-02T17:09:05.606Z,7.60
2023-03-02T17:11:35.496Z,6.60
2023-03-02T17:14:03.778Z,8.23
2023-03-02T17:16:32.261Z,7.90
2023-03-02T17:19:02.603Z,7.60
2023-03-02T17:21:30.931Z,7.50
2023-03-02T17:23:59.128Z,7.50
2023-03-02T17:26:27.394Z,7.40
2023-03-02T17:28:57.062Z,7.40
2023-03-02T17:31:26.425Z,8.00
2023-03-02T17:33:54.726Z,9.40
2023-03-02T17:36:23.386Z,8.90
2023-03-02T17:38:51.835Z,9.17
2023-03-02T17:41:20.541Z,8.67
2023-03-02T17:43:48.838Z,7.83
2023-03-02T17:46:20.907Z,8.07
2023-03-02T17:48:49.867Z,7.83
2023-03-02T17:51:18.590Z,7.30
2023-03-02T17:53:47.769Z,7.60
2023-03-02T17:56:18.821Z,8.03
2023-03-02T17:58:47.385Z,7.60
2023-03-02T18:01:16.223Z,7.83
2023-03-02T18:03:46.189Z,7.33
2023-03-02T18:06:17.876Z,6.87
2023-03-02T18:08:46.283Z,7.00
2023-03-02T18:11:14.688Z,8.10
2023-03-02T18:13:42.959Z,7.80
2023-03-02T18:16:11.410Z,8.43
2023-03-02T18:18:39.703Z,7.57
2023-03-02T18:21:09.289Z,9.00
2023-03-02T18:23:37.698Z,9.67
2023-03-02T18:26:06.105Z,10.27
2023-03-02T18:28:34.360Z,8.83
2023-03-02T18:31:02.607Z,10.40
2023-03-02T18:33:30.839Z,8.80
2023-03-02T18:36:00.461Z,9.47
2023-03-02T18:38:31.041Z,7.63
2023-03-02T18:41:00.854Z,7.80
2023-03-02T18:43:29.509Z,8.07
2023-03-02T18:45:57.865Z,8.30
2023-03-02T18:48:26.608Z,8.47
2023-03-02T18:50:54.801Z,8.97
2023-03-02T18:53:23.072Z,8.50
2023-03-02T18:55:55.540Z,8.17
2023-03-02T18:58:24.611Z,9.07
2023-03-02T19:00:53.804Z,11.90
2023-03-02T19:03:22.428Z,7.77
2023-03-02T19:05:50.843Z,8.80
2023-03-02T19:08:20.536Z,9.20
2023-03-02T19:10:48.784Z,7.43
2023-03-02T19:13:18.479Z,8.30
2023-03-02T19:15:46.831Z,8.13
2023-03-02T19:18:16.146Z,8.40
2023-03-02T19:20:44.385Z,8.73
2023-03-02T19:23:12.754Z,8.40
2023-03-02T19:25:41.147Z,9.20
2023-03-02T19:28:14.708Z,7.80
2023-03-02T19:30:44.404Z,8.20
2023-03-02T19:33:12.879Z,7.03
2023-03-02T19:35:41.520Z,8.00
2023-03-02T19:38:23.830Z,8.40
2023-03-02T19:40:52.148Z,9.53
2023-03-02T19:43:22.475Z,7.90
2023-03-02T19:45:52.633Z,8.90
2023-03-02T19:48:21.122Z,8.17
2023-03-02T19:50:49.642Z,9.80
2023-03-02T19:53:17.964Z,8.47
2023-03-02T19:55:46.439Z,8.57
2023-03-02T19:58:17.269Z,8.93
2023-03-02T20:00:46.307Z,8.70
2023-03-02T20:03:16.655Z,9.33
2023-03-02T20:05:46.138Z,9.50
2023-03-02T20:08:19.790Z,9.03
2023-03-02T20:10:49.683Z,10.77
2023-03-02T20:13:22.508Z,8.07
2023-03-02T20:15:51.805Z,10.83
2023-03-02T20:18:23.137Z,12.03
2023-03-02T20:20:53.384Z,11.70
2023-03-02T20:23:21.763Z,11.57
2023-03-02T20:25:50.089Z,13.27
2023-03-02T20:28:22.540Z,9.57
2023-03-02T20:30:59.537Z,10.00
2023-03-02T20:33:31.479Z,11.20
2023-03-02T20:36:00.710Z,14.30
2023-03-02T20:38:30.861Z,12.90
2023-03-02T20:40:59.628Z,12.70
2023-03-02T20:43:28.207Z,9.03
2023-03-02T20:45:56.668Z,11.00
2023-03-02T20:48:24.956Z,8.47
2023-03-02T20:50:54.629Z,8.63
2023-03-02T20:53:22.833Z,9.83
2023-03-02T20:55:51.534Z,9.43
2023-03-02T20:58:19.772Z,9.33
2023-03-02T21:00:48.759Z,10.67
2023-03-02T21:03:17.082Z,9.87
2023-03-02T21:05:45.837Z,10.70
2023-03-02T21:08:15.688Z,12.33
2023-03-02T21:10:44.949Z,9.33
2023-03-02T21:13:13.945Z,13.10
2023-03-02T21:15:42.963Z,11.70
2023-03-02T21:18:11.197Z,10.37
2023-03-02T21:20:39.721Z,14.07
2023-03-02T21:23:08.065Z,11.83
2023-03-02T21:25:38.457Z,10.07
2023-03-02T21:28:07.738Z,9.90
2023-03-02T21:30:35.988Z,10.33
2023-03-02T21:33:11.422Z,9.70
2023-03-02T21:35:40.979Z,13.73
2023-03-02T21:38:09.450Z,13.80
2023-03-02T21:40:43.032Z,14.10
2023-03-02T21:43:11.281Z,12.40
2023-03-02T21:45:39.521Z,14.17
2023-03-02T21:48:08.319Z,12.97
2023-03-02T21:50:37.962Z,14.33
2023-03-02T21:53:06.701Z,9.87
2023-03-02T21:55:37.934Z,10.17
2023-03-02T21:58:08.168Z,10.93
2023-03-02T22:00:38.368Z,9.27
2023-03-02T22:03:08.330Z,11.10
2023-03-02T22:05:37.196Z,9.20
2023-03-02T22:08:05.457Z,10.00
2023-03-02T22:10:35.101Z,10.37
2023-03-02T22:13:17.322Z,9.87
2023-03-02T22:15:46.070Z,12.70
2023-03-02T22:18:16.479Z,15.50
2023-03-02T22:20:45.549Z,13.97
2023-03-02T22:23:14.439Z,16.73
2023-03-02T22:25:44.526Z,19.10
2023-03-02T22:28:18.513Z,16.47
2023-03-02T22:30:47.101Z,15.13
2023-03-02T22:33:18.592Z,16.50
2023-03-02T22:35:47.093Z,13.20
2023-03-02T22:38:21.639Z,15.63
2023-03-02T22:40:50.116Z,14.60
2023-03-02T22:43:25.850Z,14.90
2023-03-02T22:45:55.453Z,14.63
2023-03-02T22:48:25.475Z,16.33
2023-03-02T22:50:53.780Z,17.27
2023-03-02T22:53:26.021Z,15.57
2023-03-02T22:55:58.623Z,15.67
2023-03-02T22:58:31.429Z,17.00
2023-03-02T23:01:00.251Z,16.93
2023-03-02T23:03:37.403Z,16.17
2023-03-02T23:06:17.893Z,15.33
2023-03-02T23:08:46.173Z,10.93
2023-03-02T23:11:16.668Z,12.77
2023-03-02T23:13:46.271Z,16.30
2023-03-02T23:16:17.546Z,12.53
2023-03-02T23:18:47.854Z,15.60
2023-03-02T23:21:29.042Z,16.37
2023-03-02T23:23:57.349Z,14.30
2023-03-02T23:26:25.700Z,15.80
2023-03-02T23:28:55.437Z,14.83
2023-03-02T23:31:23.704Z,15.97
2023-03-02T23:33:51.932Z,17.37
2023-03-02T23:36:20.887Z,15.47
2023-03-02T23:38:49.218Z,12.33
2023-03-02T23:41:18.339Z,16.17
2023-03-02T23:43:46.879Z,14.93
2023-03-02T23:46:16.792Z,15.83
2023-03-02T23:48:45.394Z,15.53
2023-03-02T23:51:13.816Z,15.70
2023-03-02T23:53:42.054Z,16.43
2023-03-02T23:56:10.303Z,13.37
2023-03-02T23:58:38.545Z,10.20
